Cold Spring, New York
Current Conditions -  °F | °C
As of 11:45 AM on Thursday 27 Nov 2014 (Local Time) from KSWF Reporting Station
Light Snow Light Snow  
Wind Chill: 32°   Ceiling: 700
Heat Index: 32°   Visibility: 3mi
Dew Point: 30°   Wind: 0mph
Humidity: 93%   Direction: NA
Pressure: 29.99"   Gusts: NA
Location:  41.42°N, 73.95°W
Report Text: KSWF 271645Z 00000KT 3SM -SN BR BKN007 OVC015 00/M01 A2999
Loading
Personal Weather Stations






























Interactive Weather Map New forecast layout! Learn more

10-Day Weather Forecast

Advertisements
Track Severe Weather on mobile